Monday, October 15, 2018, 4:32 AM EDT
Back to Local

KFRG, Farmingdale Republic Airport

Location: Farmingdale, NY, United States Lat: 40.733
Local Time: 4:32 AM EDT ( 8:32 GMT) Lon: -73.417
Time Zone: US/Eastern Elev: 82 ft

Show me the last for .
Show Decoded

2018-10-15 03:53 METAR KFRG 150753Z AUTO 00000KT 10SM BKN039 OVC048 11/08 A3019 RMK AO2 SLP223
                 T01060083 =
2018-10-15 02:53 METAR KFRG 150653Z AUTO 00000KT 10SM BKN040 OVC100 09/08 A3020 RMK AO2 SLP227
                 T00940078 =
2018-10-15 01:53 METAR KFRG 150553Z AUTO 00000KT 10SM BKN100 09/07 A3021 RMK AO2 SLP231 T00890072
                 10128 20083 58009 =
2018-10-15 00:53 METAR KFRG 150453Z AUTO 00000KT 10SM CLR 09/07 A3023 RMK AO2 SLP236 T00940072
                 401440044 =
2018-10-14 23:53 METAR KFRG 150353Z AUTO 00000KT 10SM CLR 10/07 A3024 RMK AO2 SLP239 T01000067 =
2018-10-14 22:53 METAR KFRG 150253Z AUTO 00000KT 10SM CLR 11/07 A3024 RMK AO2 SLP240 T01110067
                 53005 =
2018-10-14 21:53 METAR KFRG 150153Z AUTO 00000KT 10SM CLR 12/06 A3023 RMK AO2 SLP238 T01220061 =
2018-10-14 20:53 METAR KFRG 150053Z 24004KT 10SM SCT090 12/06 A3023 RMK AO2 SLP236 T01220061 =
2018-10-14 19:53 METAR KFRG 142353Z 24004KT 10SM FEW110 13/06 A3023 RMK AO2 SLP236 T01280061
                 10144 20122 53004 =
2018-10-14 18:53 METAR KFRG 142253Z 25003KT 10SM FEW110 13/05 A3021 RMK AO2 SLP232 T01280050 =
2018-10-14 17:53 METAR KFRG 142153Z 23006KT 10SM CLR 13/05 A3021 RMK AO2 SLP230 T01330050 =
2018-10-14 16:53 METAR KFRG 142053Z 25008KT 10SM CLR 13/05 A3022 RMK AO2 SLP232 T01330050 56006 =
2018-10-14 15:53 METAR KFRG 141953Z 26012KT 10SM CLR 14/04 A3022 RMK AO2 SLP235 T01390044 =
2018-10-14 14:53 METAR KFRG 141853Z 24010KT 10SM CLR 14/04 A3023 RMK AO2 SLP235 T01440044 =
2018-10-14 13:53 METAR KFRG 141753Z 25009KT 10SM CLR 14/03 A3023 RMK AO2 SLP238 T01390033 10144
                 20072 58009 =
2018-10-14 12:53 METAR KFRG 141653Z 22009KT 10SM CLR 14/04 A3025 RMK AO2 SLP244 T01440039 =
2018-10-14 11:53 METAR KFRG 141553Z 29006KT 10SM CLR 14/04 A3026 RMK AO2 SLP246 T01390039 =
2018-10-14 10:53 METAR KFRG 141453Z 30007KT 10SM CLR 13/05 A3026 RMK AO2 SLP247 T01330050 53014 =
2018-10-14 09:53 METAR KFRG 141353Z 30004KT 10SM CLR 12/06 A3024 RMK AO2 SLP239 T01220061 =
2018-10-14 08:53 METAR KFRG 141253Z 00000KT 10SM CLR 10/07 A3022 RMK AO2 SLP234 T01000067 =
2018-10-14 07:53 METAR KFRG 141153Z 00000KT 10SM CLR 07/06 A3022 RMK AO2 SLP233 70004 T00720056
                 10078 20044 52016 =
2018-10-14 06:53 METAR KFRG 141053Z 00000KT 10SM CLR 07/05 A3020 RMK AO2 SLP227 T00670050 =
2018-10-14 05:53 METAR KFRG 140953Z AUTO 00000KT 10SM CLR 06/04 A3019 RMK AO2 SLP223 T00560039 =
2018-10-14 04:53 METAR KFRG 140853Z AUTO 00000KT 10SM CLR 06/04 A3017 RMK AO2 SLP217 T00560039
                 51011 =

Support USWX by starting your Amazon purchase here.